createdAt,value
2022-09-07T00:01:48.347Z,1.52
2022-09-07T00:04:15.030Z,1.40
2022-09-07T00:06:41.708Z,1.70
2022-09-07T00:09:08.383Z,1.27
2022-09-07T00:11:34.933Z,1.50
2022-09-07T00:14:01.584Z,1.67
2022-09-07T00:16:30.144Z,1.35
2022-09-07T00:18:59.545Z,1.42
2022-09-07T00:21:26.998Z,1.25
2022-09-07T00:23:53.853Z,2.20
2022-09-07T00:26:23.760Z,1.63
2022-09-07T00:28:50.895Z,1.80
2022-09-07T00:31:22.967Z,1.83
2022-09-07T00:33:51.567Z,1.58
2022-09-07T00:36:19.447Z,1.75
2022-09-07T00:38:46.148Z,1.95
2022-09-07T00:41:13.629Z,1.40
2022-09-07T00:43:43.262Z,1.60
2022-09-07T00:46:15.622Z,1.60
2022-09-07T00:48:49.050Z,1.50
2022-09-07T00:51:23.771Z,1.70
2022-09-07T00:53:58.301Z,1.67
2022-09-07T00:56:28.358Z,1.95
2022-09-07T00:58:55.136Z,1.40
2022-09-07T01:01:21.838Z,1.25
2022-09-07T01:03:51.518Z,1.55
2022-09-07T01:06:21.803Z,1.60
2022-09-07T01:08:50.167Z,1.70
2022-09-07T01:11:22.003Z,1.60
2022-09-07T01:13:51.276Z,1.63
2022-09-07T01:16:46.705Z,1.70
2022-09-07T01:19:57.431Z,1.35
2022-09-07T01:22:51.460Z,1.63
2022-09-07T01:25:46.415Z,1.70
2022-09-07T01:28:23.656Z,1.30
2022-09-07T01:31:17.745Z,1.65
2022-09-07T01:34:09.145Z,2.22
2022-09-07T01:37:07.700Z,1.63
2022-09-07T01:39:42.783Z,1.63
2022-09-07T01:42:13.269Z,1.50
2022-09-07T01:44:46.066Z,1.70
2022-09-07T01:47:17.714Z,1.75
2022-09-07T01:49:52.917Z,1.58
2022-09-07T01:52:27.586Z,1.65
2022-09-07T01:55:05.802Z,1.77
2022-09-07T01:57:40.080Z,1.63
2022-09-07T02:00:15.453Z,2.08
2022-09-07T02:03:33.619Z,1.73
2022-09-07T02:06:00.175Z,1.35
2022-09-07T02:08:31.808Z,1.52
2022-09-07T02:11:05.353Z,1.70
2022-09-07T02:13:37.963Z,1.25
2022-09-07T02:16:11.136Z,1.67
2022-09-07T02:18:44.036Z,1.60
2022-09-07T02:21:11.513Z,1.52
2022-09-07T02:23:53.218Z,1.52
2022-09-07T02:26:22.437Z,1.60
2022-09-07T02:28:49.287Z,1.60
2022-09-07T02:31:16.195Z,1.50
2022-09-07T02:33:43.282Z,1.63
2022-09-07T02:36:13.137Z,1.23
2022-09-07T02:38:39.963Z,1.95
2022-09-07T02:41:26.502Z,1.55
2022-09-07T02:43:53.304Z,1.65
2022-09-07T02:46:30.806Z,1.40
2022-09-07T02:49:06.373Z,1.23
2022-09-07T02:51:55.877Z,1.55
2022-09-07T02:54:30.956Z,1.58
2022-09-07T02:57:19.615Z,1.50
2022-09-07T03:00:09.702Z,1.90
2022-09-07T03:02:59.727Z,1.23
2022-09-07T03:05:47.447Z,1.42
2022-09-07T03:08:26.026Z,1.30
2022-09-07T03:10:53.587Z,1.30
2022-09-07T03:13:21.515Z,1.48
2022-09-07T03:15:50.437Z,1.25
2022-09-07T03:18:20.353Z,1.25
2022-09-07T03:20:46.923Z,1.17
2022-09-07T03:23:13.559Z,1.00
2022-09-07T03:25:40.171Z,1.40
2022-09-07T03:28:07.224Z,1.20
2022-09-07T03:30:33.921Z,1.10
2022-09-07T03:33:00.543Z,1.25
2022-09-07T03:35:27.496Z,1.15
2022-09-07T03:37:54.063Z,1.35
2022-09-07T03:40:20.624Z,1.08
2022-09-07T03:42:49.890Z,1.10
2022-09-07T03:45:16.942Z,0.85
2022-09-07T03:47:43.690Z,1.30
2022-09-07T03:50:10.279Z,1.30
2022-09-07T03:52:37.702Z,1.75
2022-09-07T03:55:05.107Z,1.75
2022-09-07T03:57:31.728Z,1.48
2022-09-07T03:59:58.304Z,1.35
2022-09-07T04:02:24.971Z,1.15
2022-09-07T04:04:51.622Z,1.02
2022-09-07T04:07:18.270Z,1.00
2022-09-07T04:09:44.947Z,1.23
2022-09-07T04:12:11.619Z,1.55
2022-09-07T04:14:38.202Z,1.30
2022-09-07T04:17:04.833Z,1.33
2022-09-07T04:19:31.466Z,1.25
2022-09-07T04:21:58.008Z,1.10
2022-09-07T04:24:24.885Z,1.05
2022-09-07T04:26:51.545Z,2.10
2022-09-07T04:29:18.246Z,1.13
2022-09-07T04:31:44.996Z,1.17
2022-09-07T04:34:11.996Z,1.17
2022-09-07T04:36:38.631Z,1.17
2022-09-07T04:39:05.712Z,1.17
2022-09-07T04:41:33.698Z,1.10
2022-09-07T04:44:02.334Z,0.93
2022-09-07T04:46:31.985Z,0.95
2022-09-07T04:49:01.284Z,0.90
2022-09-07T04:51:30.689Z,1.05
2022-09-07T04:53:59.257Z,1.45
2022-09-07T04:56:26.635Z,1.02
2022-09-07T04:58:53.525Z,1.50
2022-09-07T05:01:22.849Z,1.15
2022-09-07T05:03:50.288Z,1.27
2022-09-07T05:06:18.368Z,1.10
2022-09-07T05:13:40.404Z,1.30
2022-09-07T05:16:09.285Z,1.13
2022-09-07T05:18:36.462Z,1.00
2022-09-07T05:21:09.188Z,1.00
2022-09-07T05:23:35.818Z,1.15
2022-09-07T05:26:04.175Z,1.10
2022-09-07T05:28:31.212Z,1.55
2022-09-07T05:31:23.502Z,0.82
2022-09-07T05:36:39.574Z,0.82
2022-09-07T05:39:07.335Z,1.30
2022-09-07T05:41:34.441Z,1.30
2022-09-07T05:46:47.694Z,1.10
2022-09-07T05:49:14.489Z,0.80
2022-09-07T05:51:41.171Z,1.13
2022-09-07T05:54:07.823Z,1.15
2022-09-07T05:56:36.228Z,1.25
2022-09-07T05:59:03.678Z,1.10
2022-09-07T06:01:30.658Z,1.20
2022-09-07T06:03:57.775Z,1.40
2022-09-07T06:06:24.470Z,1.83
2022-09-07T06:08:52.557Z,1.25
2022-09-07T06:13:50.643Z,1.08
2022-09-07T06:16:18.337Z,1.47
2022-09-07T06:18:47.137Z,1.02
2022-09-07T06:21:15.081Z,0.95
2022-09-07T06:23:43.166Z,1.17
2022-09-07T06:26:10.659Z,1.30
2022-09-07T06:28:39.549Z,1.13
2022-09-07T06:31:14.813Z,1.02
2022-09-07T06:33:42.708Z,0.93
2022-09-07T06:36:17.614Z,0.95
2022-09-07T06:38:45.089Z,0.90
2022-09-07T06:44:18.399Z,1.10
2022-09-07T06:49:31.828Z,1.30
2022-09-07T06:51:58.388Z,1.10
2022-09-07T06:57:11.794Z,1.17
2022-09-07T06:59:38.554Z,1.42
2022-09-07T07:02:06.278Z,0.88
2022-09-07T07:04:37.817Z,0.98
2022-09-07T07:07:10.670Z,1.08
2022-09-07T07:09:37.311Z,0.77
2022-09-07T07:12:04.057Z,1.00
2022-09-07T07:14:33.799Z,0.70
2022-09-07T07:17:01.669Z,1.10
2022-09-07T07:19:28.620Z,1.20
2022-09-07T07:22:29.663Z,1.25
2022-09-07T07:24:42.538Z,1.15
2022-09-07T07:27:09.189Z,1.10
2022-09-07T07:29:35.739Z,1.10
2022-09-07T07:32:02.590Z,1.05
2022-09-07T07:34:29.423Z,1.05
2022-09-07T07:36:56.055Z,0.95
2022-09-07T07:42:09.859Z,1.15
2022-09-07T07:44:36.409Z,0.95
2022-09-07T07:47:03.189Z,1.02
2022-09-07T07:49:29.848Z,0.95
2022-09-07T07:54:43.732Z,0.80
2022-09-07T07:57:10.416Z,1.05
2022-09-07T07:59:37.336Z,1.10
2022-09-07T08:02:06.014Z,0.82
2022-09-07T08:04:35.444Z,1.10
2022-09-07T08:07:09.219Z,1.00
2022-09-07T08:09:41.167Z,0.90
2022-09-07T08:12:08.868Z,0.82
2022-09-07T08:14:35.655Z,1.08
2022-09-07T08:17:02.387Z,1.02
2022-09-07T08:19:28.948Z,0.73
2022-09-07T08:21:55.434Z,0.88
2022-09-07T08:24:22.248Z,1.00
2022-09-07T08:26:49.024Z,1.20
2022-09-07T08:29:15.595Z,0.88
2022-09-07T08:31:42.503Z,1.02
2022-09-07T08:34:09.044Z,1.33
2022-09-07T08:36:35.786Z,1.35
2022-09-07T08:39:02.451Z,1.10
2022-09-07T08:41:46.189Z,1.55
2022-09-07T08:44:18.775Z,0.98
2022-09-07T08:46:49.763Z,1.05
2022-09-07T08:49:21.219Z,1.40
2022-09-07T08:51:55.115Z,1.10
2022-09-07T08:54:21.715Z,1.40
2022-09-07T08:59:54.304Z,1.20
2022-09-07T09:02:28.711Z,1.08
2022-09-07T09:07:55.872Z,1.17
2022-09-07T09:10:36.723Z,1.27
2022-09-07T09:13:18.394Z,1.10
2022-09-07T09:15:51.758Z,1.35
2022-09-07T09:18:40.153Z,1.15
2022-09-07T09:21:13.796Z,1.20
2022-09-07T09:23:42.379Z,0.93
2022-09-07T09:26:14.759Z,1.23
2022-09-07T09:28:41.327Z,1.23
2022-09-07T09:31:17.260Z,1.60
2022-09-07T09:33:44.070Z,1.10
2022-09-07T09:37:00.070Z,0.90
2022-09-07T09:39:34.078Z,0.95
2022-09-07T15:48:21.428Z,1.00
2022-09-07T15:50:49.060Z,1.10
2022-09-07T15:56:03.517Z,1.30
2022-09-07T15:58:30.023Z,0.90
2022-09-07T16:03:51.861Z,0.80
2022-09-07T16:06:18.534Z,0.90
2022-09-07T16:08:45.351Z,1.10
2022-09-07T16:11:26.429Z,1.33
2022-09-07T16:14:01.345Z,1.50
2022-09-07T16:19:20.606Z,1.23
2022-09-07T16:21:47.342Z,1.02
2022-09-07T16:24:13.907Z,0.90
2022-09-07T16:26:40.382Z,1.02
2022-09-07T16:29:07.034Z,1.40
2022-09-07T16:31:33.988Z,1.20
2022-09-07T16:34:02.287Z,1.67
2022-09-07T16:36:30.343Z,1.08
2022-09-07T16:38:59.435Z,1.20
2022-09-07T16:41:28.633Z,1.13
2022-09-07T16:43:55.949Z,1.35
2022-09-07T16:46:25.620Z,1.23
2022-09-07T16:48:53.075Z,1.30
2022-09-07T16:51:21.366Z,1.23
2022-09-07T16:53:49.323Z,0.77
2022-09-07T16:58:46.536Z,1.00
2022-09-07T17:01:16.177Z,1.30
2022-09-07T17:03:43.296Z,1.70
2022-09-07T17:06:12.475Z,1.90
2022-09-07T17:08:40.138Z,1.55
2022-09-07T17:11:09.960Z,1.67
2022-09-07T17:13:38.224Z,1.20
2022-09-07T17:16:13.428Z,1.10
2022-09-07T17:21:30.012Z,1.25
2022-09-07T17:23:56.753Z,1.55
2022-09-07T17:26:26.579Z,1.73
2022-09-07T17:28:59.772Z,1.77
2022-09-07T17:34:16.787Z,1.30
2022-09-07T17:36:43.257Z,1.10
2022-09-07T17:39:19.158Z,1.27
2022-09-07T17:41:47.967Z,1.70
2022-09-07T17:44:14.975Z,1.52
2022-09-07T17:46:41.509Z,1.65
2022-09-07T17:49:09.736Z,1.60
2022-09-07T17:51:36.251Z,1.42
2022-09-07T17:54:12.939Z,2.10
2022-09-07T17:56:41.272Z,1.27
2022-09-07T18:04:22.145Z,1.00
2022-09-07T18:06:48.961Z,1.10
2022-09-07T18:09:15.752Z,1.45
2022-09-07T18:11:46.867Z,1.10
2022-09-07T18:14:14.589Z,1.20
2022-09-07T18:16:42.487Z,1.20
2022-09-07T18:19:10.902Z,1.27
2022-09-07T18:21:38.107Z,1.40
2022-09-07T18:24:16.357Z,1.70
2022-09-07T18:26:43.162Z,1.55
2022-09-07T18:29:27.325Z,1.25
2022-09-07T18:31:55.783Z,1.10
2022-09-07T18:34:22.510Z,1.20
2022-09-07T18:36:49.235Z,1.30
2022-09-07T18:39:16.014Z,2.03
2022-09-07T18:41:42.509Z,1.30
2022-09-07T18:46:55.707Z,1.73
2022-09-07T18:49:22.297Z,1.75
2022-09-07T18:54:35.415Z,1.13
2022-09-07T18:57:01.894Z,1.60
2022-09-07T18:59:29.836Z,1.85
2022-09-07T19:05:49.551Z,1.20
2022-09-07T19:07:16.986Z,1.30
2022-09-07T19:09:43.478Z,1.25
2022-09-07T19:12:12.540Z,1.13
2022-09-07T19:14:39.069Z,1.35
2022-09-07T19:17:05.701Z,1.45
2022-09-07T19:19:32.166Z,1.40
2022-09-07T19:21:58.671Z,1.33
2022-09-07T19:24:25.288Z,1.48
2022-09-07T19:26:52.207Z,1.90
2022-09-07T19:29:20.412Z,1.15
2022-09-07T19:31:51.957Z,1.83
2022-09-07T19:34:18.619Z,1.27
2022-09-07T19:36:45.092Z,2.20
2022-09-07T19:39:11.827Z,1.50
2022-09-07T19:41:38.415Z,1.70
2022-09-07T19:44:04.946Z,1.40
2022-09-07T19:46:31.474Z,1.38
2022-09-07T19:48:57.996Z,1.67
2022-09-07T19:51:24.458Z,1.60
2022-09-07T19:53:51.091Z,1.88
2022-09-07T19:56:19.677Z,2.10
2022-09-07T19:58:46.412Z,1.42
2022-09-07T20:01:18.897Z,1.85
2022-09-07T20:03:47.518Z,1.38
2022-09-07T20:06:16.155Z,1.65
2022-09-07T20:08:43.126Z,1.67
2022-09-07T20:11:13.203Z,1.75
2022-09-07T20:13:40.788Z,1.40
2022-09-07T20:16:11.686Z,1.80
2022-09-07T20:18:39.309Z,2.30
2022-09-07T20:21:08.006Z,1.95
2022-09-07T20:23:35.524Z,2.30
2022-09-07T20:26:05.181Z,1.58
2022-09-07T20:28:32.424Z,2.40
2022-09-07T20:30:58.939Z,1.83
2022-09-07T20:33:25.432Z,1.50
2022-09-07T20:35:51.951Z,1.50
2022-09-07T20:38:20.345Z,1.30
2022-09-07T20:40:54.688Z,1.60
2022-09-07T20:43:21.784Z,1.60
2022-09-07T20:45:48.283Z,2.15
2022-09-07T20:48:14.919Z,2.65
2022-09-07T20:50:41.860Z,2.10
2022-09-07T20:53:08.569Z,2.05
2022-09-07T20:55:35.602Z,1.50
2022-09-07T20:58:03.024Z,1.60
2022-09-07T21:00:29.605Z,1.60
2022-09-07T21:02:56.499Z,1.25
2022-09-07T21:05:23.065Z,1.90
2022-09-07T21:07:49.554Z,1.80
2022-09-07T21:10:16.142Z,2.15
2022-09-07T21:12:42.769Z,1.80
2022-09-07T21:15:09.770Z,1.67
2022-09-07T21:17:36.240Z,1.60
2022-09-07T21:20:03.081Z,1.65
2022-09-07T21:22:30.964Z,1.63
2022-09-07T21:24:57.607Z,2.10
2022-09-07T21:27:24.148Z,2.42
2022-09-07T21:29:51.144Z,1.85
2022-09-07T21:32:17.688Z,2.55
2022-09-07T21:34:44.224Z,1.80
2022-09-07T21:37:10.808Z,1.83
2022-09-07T21:39:37.347Z,1.52
2022-09-07T21:42:04.028Z,1.95
2022-09-07T21:44:30.617Z,1.45
2022-09-07T21:46:57.345Z,1.58
2022-09-07T21:49:23.940Z,1.60
2022-09-07T21:51:50.408Z,1.58
2022-09-07T21:54:16.959Z,1.80
2022-09-07T21:56:46.716Z,2.13
2022-09-07T21:59:13.867Z,2.00
2022-09-07T22:01:40.497Z,1.50
2022-09-07T22:04:07.081Z,1.88
2022-09-07T22:06:34.088Z,1.85
2022-09-07T22:09:02.150Z,1.35
2022-09-07T22:13:59.336Z,1.45
2022-09-07T22:16:26.213Z,1.50
2022-09-07T22:18:52.772Z,1.40
2022-09-07T22:21:21.928Z,1.70
2022-09-07T22:23:51.175Z,1.60
2022-09-07T22:26:23.603Z,1.70
2022-09-07T22:28:50.517Z,1.50
2022-09-07T22:31:20.643Z,1.70
2022-09-07T22:33:48.569Z,1.83
2022-09-07T22:36:18.415Z,1.50
2022-09-07T22:38:46.453Z,1.38
2022-09-07T22:43:45.096Z,1.48
2022-09-07T22:46:12.387Z,1.80
2022-09-07T22:48:40.377Z,1.80
2022-09-07T22:51:08.660Z,1.77
2022-09-07T22:53:38.509Z,1.55
2022-09-07T22:56:19.443Z,1.90
2022-09-07T22:58:48.542Z,1.42
2022-09-07T23:01:15.753Z,1.55
2022-09-07T23:03:43.870Z,2.20
2022-09-07T23:06:25.073Z,1.58
2022-09-07T23:08:53.028Z,1.63
2022-09-07T23:11:19.674Z,1.52
2022-09-07T23:13:49.834Z,2.60
2022-09-07T23:16:16.481Z,1.85
2022-09-07T23:18:43.021Z,1.83
2022-09-07T23:21:10.835Z,1.73
2022-09-07T23:23:37.629Z,1.90
2022-09-07T23:26:05.119Z,1.90
2022-09-07T23:28:32.240Z,1.70
2022-09-07T23:30:59.450Z,1.57
2022-09-07T23:33:26.923Z,1.80
2022-09-07T23:36:02.792Z,2.20
2022-09-07T23:38:30.064Z,1.70
2022-09-07T23:40:57.502Z,1.60
2022-09-07T23:43:25.389Z,1.80
2022-09-07T23:45:51.947Z,1.50
2022-09-07T23:48:18.490Z,2.00
2022-09-07T23:50:45.737Z,2.30
2022-09-07T23:53:12.937Z,2.40
2022-09-07T23:55:40.188Z,2.07
2022-09-07T23:58:08.119Z,1.70
